Time;durP1;ratioP1;P1;durP2;ratioP2;P2;SDS_P1;SDS_P2;PMS_P1;PMS_P2;Temp;Humidity;BMP_temperature;BMP_pressure;BME280_temperature;BME280_humidity;BME280_pressure;Samples;Min_cycle;Max_cycle;Signal;HPM_P1;HPM_P2
2022/06/17 00:01:20;;;;;;;;;;;23.70;99.90;;;;;;5133111;27;19907;-69
2022/06/17 00:03:48;;;;;;;;;;;23.70;99.90;;;;;;5133002;27;19916;-70
2022/06/17 00:06:15;;;;;;;;;;;23.70;99.90;;;;;;5133450;27;20350;-70
2022/06/17 00:08:45;;;;;;;;;;;23.80;99.90;;;;;;5132983;27;20252;-70
2022/06/17 00:11:12;;;;;;;;;;;23.70;99.90;;;;;;5133377;27;19903;-68
2022/06/17 00:13:38;;;;;;;;;;;23.70;99.90;;;;;;5133159;27;19909;-68
2022/06/17 00:16:08;;;;;;;;;;;23.70;99.90;;;;;;5133260;28;20271;-69
2022/06/17 00:18:34;;;;;;;;;;;23.70;99.90;;;;;;5133136;27;20403;-69
2022/06/17 00:20:59;;;;;;;;;;;23.70;99.90;;;;;;5132922;28;20010;-69
2022/06/17 00:23:27;;;;;;;;;;;23.70;99.90;;;;;;5133302;27;19903;-69
2022/06/17 00:25:53;;;;;;;;;;;23.70;99.90;;;;;;5132878;27;20520;-69
2022/06/17 00:28:20;;;;;;;;;;;23.70;99.90;;;;;;5133233;28;19965;-70
2022/06/17 00:30:47;;;;;;;;;;;23.70;99.90;;;;;;5132784;27;19947;-69
2022/06/17 00:33:13;;;;;;;;;;;23.60;99.90;;;;;;5132809;27;19914;-70
2022/06/17 00:35:41;;;;;;;;;;;23.60;99.90;;;;;;5136948;27;19955;-71
2022/06/17 00:38:11;;;;;;;;;;;23.40;99.90;;;;;;5137104;27;19911;-70
2022/06/17 00:40:37;;;;;;;;;;;23.30;99.90;;;;;;5136970;27;20256;-69
2022/06/17 00:43:05;;;;;;;;;;;23.50;99.90;;;;;;5137049;27;19972;-70
2022/06/17 00:45:51;;;;;;;;;;;23.40;99.90;;;;;;5136766;27;19910;-69
2022/06/17 00:48:20;;;;;;;;;;;23.50;99.90;;;;;;5136435;27;19990;-70
2022/06/17 00:50:48;;;;;;;;;;;23.60;99.90;;;;;;5136725;27;19903;-69
2022/06/17 00:53:29;;;;;;;;;;;23.70;99.90;;;;;;5136664;27;19911;-71
2022/06/17 00:55:57;;;;;;;;;;;23.70;99.90;;;;;;5136639;27;19903;-70
2022/06/17 00:58:26;;;;;;;;;;;23.70;99.90;;;;;;5136922;27;20347;-70
2022/06/17 01:00:54;;;;;;;;;;;23.70;99.90;;;;;;5134962;27;19915;-69
2022/06/17 01:03:37;;;;;;;;;;;23.70;99.90;;;;;;5136249;27;19907;-69
2022/06/17 01:06:09;;;;;;;;;;;23.70;99.90;;;;;;5136405;27;19960;-69
2022/06/17 01:11:40;;;;;;;;;;;23.70;99.90;;;;;;5136542;27;20388;-69
2022/06/17 01:14:08;;;;;;;;;;;23.70;99.90;;;;;;5136354;27;19909;-69
2022/06/17 01:16:35;;;;;;;;;;;23.70;99.90;;;;;;5136270;27;19903;-68
2022/06/17 01:19:05;;;;;;;;;;;23.60;99.90;;;;;;5136247;27;19903;-69
2022/06/17 01:21:36;;;;;;;;;;;23.60;99.90;;;;;;5136113;27;19915;-69
2022/06/17 01:24:02;;;;;;;;;;;23.70;99.90;;;;;;5136321;27;19903;-70
2022/06/17 01:26:27;;;;;;;;;;;23.70;99.90;;;;;;5134628;27;19910;-68
2022/06/17 01:28:53;;;;;;;;;;;23.70;99.90;;;;;;5136291;27;19907;-68
2022/06/17 01:31:21;;;;;;;;;;;23.60;99.90;;;;;;5136075;27;20351;-69
2022/06/17 01:33:47;;;;;;;;;;;23.70;99.90;;;;;;5134384;27;20340;-69
2022/06/17 01:36:18;;;;;;;;;;;23.70;99.90;;;;;;5134490;27;19904;-69
2022/06/17 01:38:48;;;;;;;;;;;23.60;99.90;;;;;;5136228;27;19987;-69
2022/06/17 01:41:15;;;;;;;;;;;23.60;99.90;;;;;;5135692;27;20374;-69
2022/06/17 01:43:44;;;;;;;;;;;23.60;99.90;;;;;;5134239;27;19917;-69
2022/06/17 01:46:12;;;;;;;;;;;23.70;99.90;;;;;;5134592;27;19911;-70
2022/06/17 01:48:41;;;;;;;;;;;23.70;99.90;;;;;;5136061;27;19904;-70
2022/06/17 01:51:09;;;;;;;;;;;23.70;99.90;;;;;;5135789;27;20001;-70
2022/06/17 01:53:38;;;;;;;;;;;23.90;99.90;;;;;;5135493;27;19957;-70
2022/06/17 01:56:09;;;;;;;;;;;23.90;99.90;;;;;;5135580;27;19903;-69
2022/06/17 01:58:37;;;;;;;;;;;23.90;99.90;;;;;;5135610;27;19907;-69
2022/06/17 02:01:04;;;;;;;;;;;23.80;99.90;;;;;;5135259;27;19930;-69
2022/06/17 02:03:32;;;;;;;;;;;23.80;99.90;;;;;;5135126;27;19977;-69
2022/06/17 02:06:09;;;;;;;;;;;23.70;99.90;;;;;;5135336;27;19910;-69
2022/06/17 02:08:35;;;;;;;;;;;23.70;99.90;;;;;;5135252;27;19942;-69
2022/06/17 02:11:01;;;;;;;;;;;23.70;99.90;;;;;;5135189;27;19957;-69
2022/06/17 02:13:27;;;;;;;;;;;23.70;99.90;;;;;;5135594;27;19942;-69
2022/06/17 02:15:53;;;;;;;;;;;23.80;99.90;;;;;;5134929;27;19943;-69
2022/06/17 02:18:19;;;;;;;;;;;23.80;99.90;;;;;;5135024;27;19949;-69
2022/06/17 02:20:49;;;;;;;;;;;23.80;99.90;;;;;;5135183;27;20386;-69
2022/06/17 02:23:22;;;;;;;;;;;23.80;99.90;;;;;;5134880;27;19903;-69
2022/06/17 02:25:49;;;;;;;;;;;23.80;99.90;;;;;;5134714;27;19948;-69
2022/06/17 02:28:18;;;;;;;;;;;23.80;99.90;;;;;;5134741;27;20001;-68
2022/06/17 02:30:45;;;;;;;;;;;23.80;99.90;;;;;;5133313;27;19986;-69
2022/06/17 02:33:12;;;;;;;;;;;23.70;99.90;;;;;;5135183;27;20029;-70
2022/06/17 02:35:40;;;;;;;;;;;23.60;99.90;;;;;;5134642;27;19907;-69
2022/06/17 02:38:06;;;;;;;;;;;23.60;99.90;;;;;;5133249;27;19911;-69
2022/06/17 02:40:36;;;;;;;;;;;23.50;99.90;;;;;;5133058;27;19915;-69
2022/06/17 02:43:06;;;;;;;;;;;23.50;99.90;;;;;;5134501;27;20236;-69
2022/06/17 02:45:34;;;;;;;;;;;23.60;99.90;;;;;;5134297;27;20323;-69
2022/06/17 02:48:01;;;;;;;;;;;23.60;99.90;;;;;;5134760;27;20348;-69
2022/06/17 02:50:28;;;;;;;;;;;23.50;99.90;;;;;;5134369;27;20048;-70
2022/06/17 02:52:55;;;;;;;;;;;23.50;99.90;;;;;;5134544;27;20274;-70
2022/06/17 02:55:33;;;;;;;;;;;23.60;99.90;;;;;;5134177;27;19904;-69
2022/06/17 02:58:18;;;;;;;;;;;23.70;99.90;;;;;;5133834;27;19911;-70
2022/06/17 03:00:44;;;;;;;;;;;23.70;99.90;;;;;;5133790;27;20277;-69
2022/06/17 03:03:13;;;;;;;;;;;23.70;99.90;;;;;;5134395;27;19911;-70
2022/06/17 03:05:41;;;;;;;;;;;23.70;99.90;;;;;;5134535;27;19956;-70
2022/06/17 03:08:26;;;;;;;;;;;23.80;99.90;;;;;;5134257;27;19903;-70
2022/06/17 03:10:53;;;;;;;;;;;23.80;99.90;;;;;;5134737;27;20028;-69
2022/06/17 03:13:30;;;;;;;;;;;23.90;99.90;;;;;;5134319;27;19918;-70
2022/06/17 03:15:59;;;;;;;;;;;23.90;99.90;;;;;;5134108;27;19949;-70
2022/06/17 03:18:26;;;;;;;;;;;23.90;99.90;;;;;;5134607;27;20361;-69
2022/06/17 03:20:52;;;;;;;;;;;23.80;99.90;;;;;;5134813;27;20359;-70
2022/06/17 03:23:26;;;;;;;;;;;23.80;99.90;;;;;;5134882;27;19914;-69
2022/06/17 03:25:58;;;;;;;;;;;23.80;99.90;;;;;;5135115;27;20094;-69
2022/06/17 03:28:30;;;;;;;;;;;23.90;99.90;;;;;;5134820;27;20267;-70
2022/06/17 03:31:01;;;;;;;;;;;23.90;99.90;;;;;;5134760;27;19904;-69
2022/06/17 03:33:32;;;;;;;;;;;23.90;99.90;;;;;;5135233;27;19982;-69
2022/06/17 03:36:00;;;;;;;;;;;23.80;99.90;;;;;;5134648;27;19903;-71
2022/06/17 03:38:35;;;;;;;;;;;23.70;99.90;;;;;;5134604;27;19907;-69
2022/06/17 03:41:25;;;;;;;;;;;23.70;99.90;;;;;;5134452;27;20243;-69
2022/06/17 03:44:12;;;;;;;;;;;23.70;99.90;;;;;;5126259;27;19904;-70
2022/06/17 03:46:43;;;;;;;;;;;23.70;99.90;;;;;;5133168;27;19934;-70
2022/06/17 03:49:16;;;;;;;;;;;23.70;99.90;;;;;;5134782;27;19943;-70
2022/06/17 03:51:42;;;;;;;;;;;23.70;99.90;;;;;;5132959;27;20391;-70
2022/06/17 03:54:14;;;;;;;;;;;23.70;99.90;;;;;;5134027;27;19903;-70
2022/06/17 03:56:41;;;;;;;;;;;23.70;99.90;;;;;;5134028;27;19903;-69
2022/06/17 03:59:12;;;;;;;;;;;23.70;99.90;;;;;;5134761;27;20259;-70
2022/06/17 04:01:45;;;;;;;;;;;23.70;99.90;;;;;;5134158;27;20355;-70
2022/06/17 04:04:15;;;;;;;;;;;23.70;99.90;;;;;;5134475;27;19916;-70
2022/06/17 04:06:42;;;;;;;;;;;23.70;99.90;;;;;;5134049;27;20002;-69
2022/06/17 04:09:18;;;;;;;;;;;23.70;99.90;;;;;;5133316;27;20370;-70
2022/06/17 04:11:48;;;;;;;;;;;23.70;99.90;;;;;;5133991;27;20343;-70
2022/06/17 04:14:26;;;;;;;;;;;23.70;99.90;;;;;;5133367;27;19903;-69
2022/06/17 04:16:53;;;;;;;;;;;23.70;99.90;;;;;;5133550;27;19903;-70
2022/06/17 04:19:20;;;;;;;;;;;23.70;99.90;;;;;;5133710;27;20003;-70
2022/06/17 04:21:46;;;;;;;;;;;23.70;99.90;;;;;;5134441;27;19915;-69
2022/06/17 04:24:15;;;;;;;;;;;23.60;99.90;;;;;;5134874;28;19907;-69
2022/06/17 04:26:41;;;;;;;;;;;23.50;99.90;;;;;;5133914;27;19972;-70
2022/06/17 04:29:09;;;;;;;;;;;23.60;99.90;;;;;;5134368;27;20348;-70
2022/06/17 04:31:35;;;;;;;;;;;23.50;99.90;;;;;;5134283;27;19911;-69
2022/06/17 04:34:04;;;;;;;;;;;23.60;99.90;;;;;;5134508;27;19903;-70
2022/06/17 04:36:33;;;;;;;;;;;23.60;99.90;;;;;;5132765;28;19963;-70
2022/06/17 04:39:02;;;;;;;;;;;23.70;99.90;;;;;;5134235;27;20355;-70
2022/06/17 04:41:30;;;;;;;;;;;23.80;99.90;;;;;;5134700;27;20006;-69
2022/06/17 04:43:56;;;;;;;;;;;24.00;99.90;;;;;;5134290;27;19995;-70
2022/06/17 04:46:25;;;;;;;;;;;24.20;99.90;;;;;;5134940;27;19907;-70
2022/06/17 04:48:57;;;;;;;;;;;24.30;99.90;;;;;;5135194;27;20363;-70
2022/06/17 04:51:27;;;;;;;;;;;24.40;99.90;;;;;;5134325;27;19907;-67
2022/06/17 04:53:53;;;;;;;;;;;24.50;99.90;;;;;;5134893;27;19922;-67
2022/06/17 04:56:32;;;;;;;;;;;24.60;99.90;;;;;;5134148;27;19921;-69
2022/06/17 04:58:58;;;;;;;;;;;24.60;99.90;;;;;;5134256;27;19911;-69
2022/06/17 05:01:24;;;;;;;;;;;25.00;99.90;;;;;;5134057;27;19907;-68
2022/06/17 05:03:51;;;;;;;;;;;26.10;99.10;;;;;;5133968;27;20006;-69
2022/06/17 05:06:17;;;;;;;;;;;27.40;96.60;;;;;;5133948;27;20271;-69
2022/06/17 05:08:49;;;;;;;;;;;29.20;93.90;;;;;;5134005;27;20347;-69
2022/06/17 05:11:28;;;;;;;;;;;30.80;91.30;;;;;;5133747;27;19903;-69
2022/06/17 05:13:59;;;;;;;;;;;32.70;86.90;;;;;;5133740;27;19911;-69
2022/06/17 05:16:24;;;;;;;;;;;34.60;81.00;;;;;;5133540;27;19903;-70
2022/06/17 05:18:50;;;;;;;;;;;36.10;77.20;;;;;;5134080;27;19904;-69
2022/06/17 05:21:20;;;;;;;;;;;36.10;72.20;;;;;;5137105;27;19934;-69
2022/06/17 05:23:48;;;;;;;;;;;37.10;72.10;;;;;;5138055;27;19907;-69
2022/06/17 05:26:14;;;;;;;;;;;38.40;69.90;;;;;;5137534;27;20011;-70
2022/06/17 05:28:39;;;;;;;;;;;39.60;66.00;;;;;;5137687;27;19946;-69
2022/06/17 05:31:05;;;;;;;;;;;40.50;61.40;;;;;;5137402;27;19904;-69
2022/06/17 05:33:31;;;;;;;;;;;41.20;59.00;;;;;;5137859;27;19903;-69
2022/06/17 05:35:57;;;;;;;;;;;41.50;57.70;;;;;;5137480;27;20097;-70
2022/06/17 05:38:23;;;;;;;;;;;41.50;57.10;;;;;;5135840;27;20329;-71
2022/06/17 05:40:48;;;;;;;;;;;41.70;55.70;;;;;;5135983;27;19996;-70
2022/06/17 05:43:14;;;;;;;;;;;41.20;55.70;;;;;;5137539;27;20378;-70
2022/06/17 05:45:40;;;;;;;;;;;41.30;55.40;;;;;;5135491;27;19904;-70
2022/06/17 05:48:06;;;;;;;;;;;41.20;55.90;;;;;;5137435;27;20291;-70
2022/06/17 05:50:32;;;;;;;;;;;41.90;54.10;;;;;;5137440;27;19903;-71
2022/06/17 05:53:00;;;;;;;;;;;42.70;53.40;;;;;;5136897;27;19903;-70
2022/06/17 05:55:27;;;;;;;;;;;43.40;51.70;;;;;;5137722;27;19903;-70
2022/06/17 05:57:52;;;;;;;;;;;44.20;50.10;;;;;;5136695;27;20406;-70
2022/06/17 06:00:18;;;;;;;;;;;44.80;49.70;;;;;;5136675;27;19954;-70
2022/06/17 06:02:45;;;;;;;;;;;45.40;48.80;;;;;;5136659;27;20301;-70
2022/06/17 06:05:15;;;;;;;;;;;45.90;48.10;;;;;;5136853;27;20286;-70
2022/06/17 06:07:41;;;;;;;;;;;46.40;47.10;;;;;;5136655;27;19907;-70
2022/06/17 06:10:08;;;;;;;;;;;46.80;45.90;;;;;;5136986;27;19903;-70
2022/06/17 06:15:19;;;;;;;;;;;46.10;44.20;;;;;;5136343;27;19949;-70
2022/06/17 06:17:45;;;;;;;;;;;45.50;43.70;;;;;;5135466;27;19923;-70
2022/06/17 06:20:11;;;;;;;;;;;45.10;43.60;;;;;;5136813;27;19911;-69
2022/06/17 06:22:38;;;;;;;;;;;45.80;43.60;;;;;;5135339;27;19903;-71
2022/06/17 06:25:04;;;;;;;;;;;46.20;43.10;;;;;;5136161;27;19907;-70
2022/06/17 06:27:30;;;;;;;;;;;45.90;42.50;;;;;;5136551;27;19963;-71
2022/06/17 06:29:56;;;;;;;;;;;46.10;43.40;;;;;;5136398;27;19910;-70
2022/06/17 06:32:21;;;;;;;;;;;45.00;43.20;;;;;;5135390;27;20006;-70
2022/06/17 06:34:48;;;;;;;;;;;45.10;43.70;;;;;;5136137;27;19904;-70
2022/06/17 06:37:14;;;;;;;;;;;45.60;42.80;;;;;;5135958;27;20362;-70
2022/06/17 06:39:40;;;;;;;;;;;45.90;42.30;;;;;;5135979;27;19908;-71
2022/06/17 06:42:06;;;;;;;;;;;46.20;41.20;;;;;;5136322;27;19907;-70
2022/06/17 06:44:32;;;;;;;;;;;45.30;41.90;;;;;;5135925;27;20287;-70
2022/06/17 06:46:58;;;;;;;;;;;45.80;41.40;;;;;;5136302;27;19907;-70
2022/06/17 06:49:23;;;;;;;;;;;44.20;41.90;;;;;;5134547;27;19961;-71
2022/06/17 06:51:49;;;;;;;;;;;44.80;42.40;;;;;;5135786;27;20332;-72
2022/06/17 06:54:15;;;;;;;;;;;44.30;42.40;;;;;;5135710;27;19910;-71
2022/06/17 06:56:41;;;;;;;;;;;42.90;42.00;;;;;;5136236;27;19931;-70
2022/06/17 06:59:07;;;;;;;;;;;43.60;42.70;;;;;;5135457;27;19903;-70
2022/06/17 07:01:32;;;;;;;;;;;43.80;42.20;;;;;;5135933;27;19907;-70
2022/06/17 07:03:58;;;;;;;;;;;44.50;42.00;;;;;;5135483;27;19921;-70
2022/06/17 07:06:24;;;;;;;;;;;45.00;41.00;;;;;;5134560;27;19903;-70
2022/06/17 07:08:50;;;;;;;;;;;46.10;40.70;;;;;;5135704;27;19947;-70
2022/06/17 07:11:16;;;;;;;;;;;46.70;40.80;;;;;;5134200;27;19903;-70
2022/06/17 07:13:43;;;;;;;;;;;46.60;41.40;;;;;;5135433;27;19910;-70
2022/06/17 07:16:10;;;;;;;;;;;46.00;40.40;;;;;;5134013;27;20044;-70
2022/06/17 07:18:36;;;;;;;;;;;45.50;43.30;;;;;;5135840;27;20340;-70
2022/06/17 07:21:03;;;;;;;;;;;44.10;46.50;;;;;;5135344;27;19911;-70
2022/06/17 07:23:30;;;;;;;;;;;43.20;49.10;;;;;;5135241;27;20036;-70
2022/06/17 07:25:59;;;;;;;;;;;41.40;51.90;;;;;;5135444;27;19971;-70
2022/06/17 07:28:25;;;;;;;;;;;40.40;54.00;;;;;;5135035;27;19910;-70
2022/06/17 07:30:52;;;;;;;;;;;39.30;55.90;;;;;;5133827;27;19910;-70
2022/06/17 07:33:19;;;;;;;;;;;38.80;57.20;;;;;;5135098;27;19910;-70
2022/06/17 07:35:46;;;;;;;;;;;38.60;58.00;;;;;;5135245;27;19943;-70
2022/06/17 07:40:57;;;;;;;;;;;37.50;59.40;;;;;;5133961;27;19918;-69
2022/06/17 07:43:22;;;;;;;;;;;37.30;59.90;;;;;;5133746;27;19903;-69
2022/06/17 07:45:48;;;;;;;;;;;36.90;60.70;;;;;;5134520;27;20002;-70
2022/06/17 07:48:14;;;;;;;;;;;36.60;60.10;;;;;;5134660;27;19904;-69
2022/06/17 07:50:41;;;;;;;;;;;36.50;61.30;;;;;;5133648;27;19903;-69
2022/06/17 07:53:07;;;;;;;;;;;36.30;60.70;;;;;;5133841;27;20036;-69
2022/06/17 07:55:34;;;;;;;;;;;36.30;60.60;;;;;;5133942;27;19907;-68
2022/06/17 07:58:00;;;;;;;;;;;36.40;60.90;;;;;;5133732;27;19903;-69
2022/06/17 08:00:36;;;;;;;;;;;36.70;60.30;;;;;;5133739;27;20374;-69
2022/06/17 08:03:03;;;;;;;;;;;36.80;59.00;;;;;;5134008;27;19947;-70
2022/06/17 08:05:30;;;;;;;;;;;36.00;59.70;;;;;;5134033;27;20341;-68
2022/06/17 08:07:55;;;;;;;;;;;35.70;59.80;;;;;;5133667;27;19962;-69
2022/06/17 08:10:23;;;;;;;;;;;35.60;60.80;;;;;;5134191;27;19938;-70
2022/06/17 08:12:49;;;;;;;;;;;36.00;60.80;;;;;;5133448;27;20036;-70
2022/06/17 08:15:15;;;;;;;;;;;36.30;60.20;;;;;;5133304;27;19946;-70
2022/06/17 08:17:41;;;;;;;;;;;36.60;59.40;;;;;;5133852;27;19903;-69
2022/06/17 08:20:30;;;;;;;;;;;36.90;58.90;;;;;;5134267;27;19911;-70
2022/06/17 08:22:56;;;;;;;;;;;36.90;57.10;;;;;;5125880;27;19910;-70
2022/06/17 08:25:22;;;;;;;;;;;37.10;57.30;;;;;;5134023;27;19997;-70
2022/06/17 08:27:49;;;;;;;;;;;37.20;57.10;;;;;;5134144;27;19943;-70
2022/06/17 08:30:16;;;;;;;;;;;37.30;57.10;;;;;;5134126;27;19903;-69
2022/06/17 08:32:55;;;;;;;;;;;37.40;57.20;;;;;;5134355;27;19954;-70
2022/06/17 08:35:22;;;;;;;;;;;37.40;57.30;;;;;;5134113;27;19911;-70
2022/06/17 08:37:51;;;;;;;;;;;37.40;56.30;;;;;;5134095;27;20419;-70
2022/06/17 08:40:25;;;;;;;;;;;37.20;56.70;;;;;;5133969;27;20363;-69
2022/06/17 08:43:07;;;;;;;;;;;37.20;56.50;;;;;;5134520;28;20374;-69
2022/06/17 08:45:55;;;;;;;;;;;37.20;55.40;;;;;;5134192;28;19910;-70
2022/06/17 08:48:35;;;;;;;;;;;37.00;55.90;;;;;;5134379;27;19999;-69
2022/06/17 08:51:12;;;;;;;;;;;37.00;55.90;;;;;;5133628;27;19903;-69
2022/06/17 08:53:51;;;;;;;;;;;36.90;56.00;;;;;;5133407;27;20278;-70
2022/06/17 08:56:23;;;;;;;;;;;36.70;55.40;;;;;;5136781;27;19910;-69
2022/06/17 08:58:55;;;;;;;;;;;36.40;55.50;;;;;;5137954;27;19910;-70
2022/06/17 09:01:30;;;;;;;;;;;36.40;56.70;;;;;;5137517;27;19911;-69
2022/06/17 09:04:09;;;;;;;;;;;36.50;56.90;;;;;;5137023;27;19938;-70
2022/06/17 09:06:46;;;;;;;;;;;36.60;56.70;;;;;;5135751;27;19915;-69
2022/06/17 09:09:27;;;;;;;;;;;36.40;56.20;;;;;;5137535;27;19964;-69
2022/06/17 09:12:16;;;;;;;;;;;36.00;55.10;;;;;;5137557;27;19960;-70
2022/06/17 09:14:42;;;;;;;;;;;36.00;56.20;;;;;;5107662;27;19910;-69
2022/06/17 09:17:10;;;;;;;;;;;35.90;54.90;;;;;;5137149;27;19995;-69
2022/06/17 09:19:37;;;;;;;;;;;35.70;55.30;;;;;;5137322;27;19914;-70
2022/06/17 09:22:10;;;;;;;;;;;35.60;54.60;;;;;;5136865;27;20039;-68
2022/06/17 09:24:40;;;;;;;;;;;35.20;55.00;;;;;;5136698;27;19903;-69
2022/06/17 09:27:09;;;;;;;;;;;35.00;55.60;;;;;;5136363;27;20007;-70
2022/06/17 09:29:49;;;;;;;;;;;35.00;57.20;;;;;;5136759;27;19986;-70
2022/06/17 09:32:20;;;;;;;;;;;34.90;56.70;;;;;;5136961;27;19903;-70
2022/06/17 09:34:56;;;;;;;;;;;35.00;56.10;;;;;;5135305;27;19904;-70
2022/06/17 09:37:34;;;;;;;;;;;34.90;55.80;;;;;;5137018;27;19911;-70
2022/06/17 09:40:06;;;;;;;;;;;35.00;55.30;;;;;;5136384;27;19996;-70
2022/06/17 09:42:44;;;;;;;;;;;34.80;54.60;;;;;;5137013;27;19944;-70
2022/06/17 09:45:15;;;;;;;;;;;34.50;54.40;;;;;;5136786;27;19903;-69
2022/06/17 09:47:45;;;;;;;;;;;34.60;54.60;;;;;;5136265;27;19938;-69
2022/06/17 09:50:16;;;;;;;;;;;34.50;55.10;;;;;;5136095;27;19903;-69
2022/06/17 09:53:02;;;;;;;;;;;34.50;55.20;;;;;;5136181;27;19905;-70
2022/06/17 09:55:32;;;;;;;;;;;34.30;54.50;;;;;;5135507;27;19904;-69
2022/06/17 09:58:00;;;;;;;;;;;34.20;55.40;;;;;;5134785;27;19903;-70
2022/06/17 10:00:30;;;;;;;;;;;34.20;55.30;;;;;;5136067;27;19965;-70
2022/06/17 10:03:08;;;;;;;;;;;34.30;56.50;;;;;;5135973;27;19943;-71
2022/06/17 10:05:52;;;;;;;;;;;34.40;56.90;;;;;;5136522;27;19915;-70
2022/06/17 10:08:18;;;;;;;;;;;34.40;56.30;;;;;;5135262;27;20265;-70
2022/06/17 10:10:44;;;;;;;;;;;34.30;55.60;;;;;;5136253;27;19907;-69
2022/06/17 10:13:09;;;;;;;;;;;33.90;56.60;;;;;;5135984;27;19903;-70
2022/06/17 10:18:31;;;;;;;;;;;33.60;57.70;;;;;;5136367;27;19956;-70
2022/06/17 10:18:44;;;;;;;;;;;33.50;58.50;;;;;;5136513;27;19948;-70
2022/06/17 10:21:21;;;;;;;;;;;33.70;57.90;;;;;;5136229;27;19911;-70
2022/06/17 10:23:47;;;;;;;;;;;33.70;57.70;;;;;;5136049;27;19909;-70
2022/06/17 10:26:26;;;;;;;;;;;33.70;58.10;;;;;;5136284;27;19903;-69
2022/06/17 10:29:14;;;;;;;;;;;33.80;58.70;;;;;;5136746;27;19903;-70
2022/06/17 10:31:42;;;;;;;;;;;33.50;59.40;;;;;;5134602;27;19903;-70
2022/06/17 10:34:13;;;;;;;;;;;33.40;60.50;;;;;;5135768;27;19904;-70
2022/06/17 10:36:40;;;;;;;;;;;33.40;62.70;;;;;;5135750;27;19930;-70
2022/06/17 10:39:07;;;;;;;;;;;33.50;62.50;;;;;;5135761;27;19954;-70
2022/06/17 10:41:33;;;;;;;;;;;33.30;65.50;;;;;;5135503;27;19917;-70
2022/06/17 10:44:00;;;;;;;;;;;33.20;65.90;;;;;;5135443;27;19903;-70
2022/06/17 10:46:32;;;;;;;;;;;32.90;66.20;;;;;;5135512;27;19986;-70
2022/06/17 10:49:02;;;;;;;;;;;32.50;67.70;;;;;;5135138;27;19910;-71
2022/06/17 10:51:28;;;;;;;;;;;32.60;67.70;;;;;;5134878;27;19946;-69
2022/06/17 10:53:56;;;;;;;;;;;32.60;68.00;;;;;;5135237;27;19907;-69
2022/06/17 10:56:24;;;;;;;;;;;32.70;68.60;;;;;;5134928;27;19903;-69
2022/06/17 10:59:00;;;;;;;;;;;32.80;69.10;;;;;;5135187;27;19994;-71
2022/06/17 11:01:46;;;;;;;;;;;32.90;69.30;;;;;;5134788;27;19911;-69
2022/06/17 11:04:17;;;;;;;;;;;33.00;70.20;;;;;;5123354;27;19915;-69
2022/06/17 11:06:48;;;;;;;;;;;33.00;70.40;;;;;;5135033;27;20261;-70
2022/06/17 11:09:28;;;;;;;;;;;32.90;70.90;;;;;;5134633;27;19907;-70
2022/06/17 11:12:10;;;;;;;;;;;33.00;71.00;;;;;;5134418;27;20302;-69
2022/06/17 11:14:45;;;;;;;;;;;33.20;71.10;;;;;;5134117;27;19904;-69
2022/06/17 11:17:26;;;;;;;;;;;33.20;71.50;;;;;;5134316;27;19910;-69
2022/06/17 11:19:54;;;;;;;;;;;33.10;71.80;;;;;;5135083;27;20382;-70
2022/06/17 11:22:19;;;;;;;;;;;33.20;72.10;;;;;;5134854;27;19912;-69
2022/06/17 11:24:50;;;;;;;;;;;33.10;72.80;;;;;;5134859;27;20263;-69
2022/06/17 11:27:27;;;;;;;;;;;33.10;73.00;;;;;;5135263;27;19956;-69
2022/06/17 11:29:53;;;;;;;;;;;33.10;72.20;;;;;;5134694;27;19904;-70
2022/06/17 11:32:19;;;;;;;;;;;33.20;72.50;;;;;;5134752;27;19947;-69
2022/06/17 11:34:54;;;;;;;;;;;33.10;73.90;;;;;;5135051;27;20314;-69
2022/06/17 11:37:21;;;;;;;;;;;32.90;74.00;;;;;;5135168;27;19903;-69
2022/06/17 11:39:47;;;;;;;;;;;32.50;73.00;;;;;;5134545;27;19952;-69
2022/06/17 11:42:15;;;;;;;;;;;32.20;75.80;;;;;;5134955;27;19904;-69
2022/06/17 11:44:56;;;;;;;;;;;32.20;77.90;;;;;;5135307;27;19903;-69
2022/06/17 11:47:24;;;;;;;;;;;32.20;78.90;;;;;;5135081;27;20386;-69
2022/06/17 11:49:50;;;;;;;;;;;32.20;78.60;;;;;;5135220;27;19949;-69
2022/06/17 11:52:25;;;;;;;;;;;32.40;78.60;;;;;;5134868;27;19911;-69
2022/06/17 11:54:52;;;;;;;;;;;32.60;79.80;;;;;;5134841;27;19907;-69
2022/06/17 11:57:21;;;;;;;;;;;32.50;78.70;;;;;;5132614;27;20003;-69
2022/06/17 11:59:48;;;;;;;;;;;32.50;77.90;;;;;;5134347;27;19907;-69
2022/06/17 12:02:15;;;;;;;;;;;32.50;80.10;;;;;;5133740;27;19919;-70
2022/06/17 12:04:50;;;;;;;;;;;32.50;82.30;;;;;;5134379;27;19915;-70
2022/06/17 12:07:22;;;;;;;;;;;32.60;82.30;;;;;;5133690;27;19904;-69
2022/06/17 12:09:51;;;;;;;;;;;32.50;82.90;;;;;;5134300;27;19910;-70
2022/06/17 12:12:18;;;;;;;;;;;32.60;81.40;;;;;;5133751;27;20262;-69
2022/06/17 12:14:58;;;;;;;;;;;32.70;81.60;;;;;;5133592;27;19989;-69
2022/06/17 12:17:25;;;;;;;;;;;32.80;79.90;;;;;;5134876;27;19949;-69
2022/06/17 12:19:51;;;;;;;;;;;33.10;81.00;;;;;;5134518;27;19911;-69
2022/06/17 12:22:19;;;;;;;;;;;33.10;82.10;;;;;;5134517;28;19904;-69
2022/06/17 12:24:45;;;;;;;;;;;32.90;82.20;;;;;;5135027;27;19903;-69
2022/06/17 12:27:20;;;;;;;;;;;33.10;81.70;;;;;;5134998;28;19911;-70
2022/06/17 12:30:01;;;;;;;;;;;33.10;84.30;;;;;;5135339;27;20335;-69
2022/06/17 12:32:30;;;;;;;;;;;32.90;85.60;;;;;;5138846;27;19911;-69
2022/06/17 12:35:10;;;;;;;;;;;33.00;85.60;;;;;;5138998;27;20366;-69
2022/06/17 12:37:41;;;;;;;;;;;33.00;85.60;;;;;;5138959;27;20347;-69
2022/06/17 12:40:10;;;;;;;;;;;32.90;85.70;;;;;;5138986;27;19919;-69
2022/06/17 12:42:48;;;;;;;;;;;33.10;85.40;;;;;;5138887;27;19903;-69
2022/06/17 12:45:20;;;;;;;;;;;33.10;86.60;;;;;;5139185;27;19996;-69
2022/06/17 12:47:48;;;;;;;;;;;32.70;88.30;;;;;;5138872;27;19903;-68
2022/06/17 12:53:14;;;;;;;;;;;32.20;90.00;;;;;;5138675;27;19911;-70
2022/06/17 12:55:49;;;;;;;;;;;31.80;90.80;;;;;;5138247;27;19926;-69
2022/06/17 12:58:28;;;;;;;;;;;31.80;90.90;;;;;;5138370;27;20255;-68
2022/06/17 13:01:03;;;;;;;;;;;31.80;91.10;;;;;;5137678;27;19962;-69
2022/06/17 13:03:47;;;;;;;;;;;31.30;92.30;;;;;;5138194;27;19915;-69
2022/06/17 13:06:21;;;;;;;;;;;31.20;92.90;;;;;;5137883;27;19904;-69
2022/06/17 13:09:05;;;;;;;;;;;31.10;93.30;;;;;;5137898;27;19903;-68
2022/06/17 13:11:45;;;;;;;;;;;30.90;93.10;;;;;;5138081;27;19997;-69
2022/06/17 13:14:29;;;;;;;;;;;30.90;93.30;;;;;;5137770;27;19938;-69
2022/06/17 13:17:04;;;;;;;;;;;30.70;93.70;;;;;;5138094;27;19903;-68
2022/06/17 13:19:38;;;;;;;;;;;31.00;92.90;;;;;;5137940;27;20001;-69
2022/06/17 13:22:04;;;;;;;;;;;31.00;92.80;;;;;;5138169;27;19907;-69
2022/06/17 13:24:44;;;;;;;;;;;31.00;91.90;;;;;;5138400;27;19925;-69
2022/06/17 13:27:16;;;;;;;;;;;31.20;93.20;;;;;;5137672;27;19903;-69
2022/06/17 13:30:00;;;;;;;;;;;31.30;93.10;;;;;;5138282;27;20374;-69
2022/06/17 13:32:32;;;;;;;;;;;31.30;93.30;;;;;;5137909;27;20244;-69
2022/06/17 13:35:07;;;;;;;;;;;31.00;94.10;;;;;;5137993;27;19903;-69
2022/06/17 13:37:39;;;;;;;;;;;31.00;94.50;;;;;;5137541;27;19910;-69
2022/06/17 13:40:10;;;;;;;;;;;31.20;94.60;;;;;;5136102;27;20010;-69
2022/06/17 13:42:36;;;;;;;;;;;31.10;95.20;;;;;;5136652;27;19910;-69
2022/06/17 13:45:11;;;;;;;;;;;30.80;94.70;;;;;;5137390;27;19903;-69
2022/06/17 13:48:03;;;;;;;;;;;30.90;95.00;;;;;;5137910;27;19949;-69
2022/06/17 13:50:49;;;;;;;;;;;30.90;94.60;;;;;;5074118;28;19905;-69
2022/06/17 13:53:23;;;;;;;;;;;31.10;95.00;;;;;;5044038;28;19908;-69
2022/06/17 13:55:58;;;;;;;;;;;31.30;95.10;;;;;;5056261;28;19963;-69
2022/06/17 13:58:29;;;;;;;;;;;31.20;95.40;;;;;;5073400;28;19908;-69
2022/06/17 14:00:57;;;;;;;;;;;31.10;95.40;;;;;;5073528;28;19916;-69
2022/06/17 14:03:43;;;;;;;;;;;30.70;95.40;;;;;;5073003;28;19931;-69
2022/06/17 14:06:10;;;;;;;;;;;30.50;95.90;;;;;;5073065;28;19904;-69
2022/06/17 14:08:46;;;;;;;;;;;30.70;95.70;;;;;;5073386;28;19935;-69
2022/06/17 14:14:14;;;;;;;;;;;30.60;95.10;;;;;;5073209;28;19946;-69
2022/06/17 14:16:41;;;;;;;;;;;30.90;94.40;;;;;;5073112;28;19959;-69
2022/06/17 14:19:14;;;;;;;;;;;31.10;93.90;;;;;;5073345;28;20336;-69
2022/06/17 14:21:47;;;;;;;;;;;31.00;93.70;;;;;;5072803;28;20002;-69
2022/06/17 14:24:14;;;;;;;;;;;31.10;93.90;;;;;;5072959;28;19905;-70
2022/06/17 14:26:43;;;;;;;;;;;30.80;94.10;;;;;;5089394;27;20251;-69
2022/06/17 14:29:13;;;;;;;;;;;30.80;94.10;;;;;;5136029;27;20468;-69
2022/06/17 14:31:40;;;;;;;;;;;30.80;94.60;;;;;;5134545;27;19903;-69
2022/06/17 14:34:07;;;;;;;;;;;30.80;94.30;;;;;;5136452;27;19903;-69
2022/06/17 14:36:45;;;;;;;;;;;30.90;93.70;;;;;;5136244;27;20352;-69
2022/06/17 14:39:24;;;;;;;;;;;30.90;93.20;;;;;;5136139;27;19904;-69
2022/06/17 14:42:02;;;;;;;;;;;31.00;93.10;;;;;;5136051;27;20339;-70
2022/06/17 14:44:30;;;;;;;;;;;30.90;93.00;;;;;;5134278;27;19903;-70
2022/06/17 14:47:14;;;;;;;;;;;30.60;93.00;;;;;;5135837;27;20361;-70
2022/06/17 14:49:42;;;;;;;;;;;30.80;93.30;;;;;;5135663;27;20271;-70